sensor_id;sensor_type;location;lat;lon;timestamp;temperature;humidity
46754;DHT22;32500;50.620;3.400;2023-05-07T00:01:43;19.20;83.60
46754;DHT22;32500;50.620;3.400;2023-05-07T00:04:08;19.30;83.60
46754;DHT22;32500;50.620;3.400;2023-05-07T00:06:34;19.20;83.50
46754;DHT22;32500;50.620;3.400;2023-05-07T00:09:00;19.20;83.60
46754;DHT22;32500;50.620;3.400;2023-05-07T00:11:27;19.20;83.60
46754;DHT22;32500;50.620;3.400;2023-05-07T00:13:53;19.20;83.60
46754;DHT22;32500;50.620;3.400;2023-05-07T00:16:19;19.20;83.60
46754;DHT22;32500;50.620;3.400;2023-05-07T00:18:45;19.20;83.60
46754;DHT22;32500;50.620;3.400;2023-05-07T00:21:11;19.20;83.60
46754;DHT22;32500;50.620;3.400;2023-05-07T00:23:37;19.20;83.70
46754;DHT22;32500;50.620;3.400;2023-05-07T00:26:03;19.20;84.40
46754;DHT22;32500;50.620;3.400;2023-05-07T00:28:29;19.20;83.70
46754;DHT22;32500;50.620;3.400;2023-05-07T00:30:55;19.20;83.70
46754;DHT22;32500;50.620;3.400;2023-05-07T00:33:20;19.20;83.70
46754;DHT22;32500;50.620;3.400;2023-05-07T00:35:47;19.10;83.70
46754;DHT22;32500;50.620;3.400;2023-05-07T00:38:13;19.10;83.70
46754;DHT22;32500;50.620;3.400;2023-05-07T00:40:39;19.10;83.70
46754;DHT22;32500;50.620;3.400;2023-05-07T00:43:04;19.10;83.70
46754;DHT22;32500;50.620;3.400;2023-05-07T00:45:30;19.20;83.80
46754;DHT22;32500;50.620;3.400;2023-05-07T00:47:58;19.20;83.70
46754;DHT22;32500;50.620;3.400;2023-05-07T00:50:25;19.20;83.80
46754;DHT22;32500;50.620;3.400;2023-05-07T00:52:51;19.10;83.70
46754;DHT22;32500;50.620;3.400;2023-05-07T00:55:17;19.20;83.80
46754;DHT22;32500;50.620;3.400;2023-05-07T00:57:43;19.10;83.80
46754;DHT22;32500;50.620;3.400;2023-05-07T01:00:10;19.10;83.80
46754;DHT22;32500;50.620;3.400;2023-05-07T01:02:38;19.10;83.90
46754;DHT22;32500;50.620;3.400;2023-05-07T01:05:05;19.10;83.80
46754;DHT22;32500;50.620;3.400;2023-05-07T01:07:33;19.10;83.80
46754;DHT22;32500;50.620;3.400;2023-05-07T01:10:00;19.10;83.90
46754;DHT22;32500;50.620;3.400;2023-05-07T01:12:27;19.10;83.90
46754;DHT22;32500;50.620;3.400;2023-05-07T01:14:54;19.10;83.90
46754;DHT22;32500;50.620;3.400;2023-05-07T01:17:19;19.10;83.90
46754;DHT22;32500;50.620;3.400;2023-05-07T01:19:45;19.10;84.00
46754;DHT22;32500;50.620;3.400;2023-05-07T01:22:15;19.10;84.00
46754;DHT22;32500;50.620;3.400;2023-05-07T01:24:41;19.00;84.00
46754;DHT22;32500;50.620;3.400;2023-05-07T01:27:08;19.10;84.00
46754;DHT22;32500;50.620;3.400;2023-05-07T01:29:33;19.10;84.00
46754;DHT22;32500;50.620;3.400;2023-05-07T01:32:00;19.10;84.00
46754;DHT22;32500;50.620;3.400;2023-05-07T01:34:28;19.00;84.00
46754;DHT22;32500;50.620;3.400;2023-05-07T01:36:56;19.00;84.00
46754;DHT22;32500;50.620;3.400;2023-05-07T01:39:27;19.00;84.10
46754;DHT22;32500;50.620;3.400;2023-05-07T01:41:57;19.00;84.00
46754;DHT22;32500;50.620;3.400;2023-05-07T01:44:25;19.00;84.00
46754;DHT22;32500;50.620;3.400;2023-05-07T01:46:51;19.00;84.00
46754;DHT22;32500;50.620;3.400;2023-05-07T01:49:17;19.00;84.00
46754;DHT22;32500;50.620;3.400;2023-05-07T01:51:43;19.00;84.00
46754;DHT22;32500;50.620;3.400;2023-05-07T01:54:09;19.00;84.00
46754;DHT22;32500;50.620;3.400;2023-05-07T01:56:35;19.00;84.10
46754;DHT22;32500;50.620;3.400;2023-05-07T01:59:01;19.00;84.00
46754;DHT22;32500;50.620;3.400;2023-05-07T02:01:27;19.00;84.00
46754;DHT22;32500;50.620;3.400;2023-05-07T02:03:53;19.00;84.00
46754;DHT22;32500;50.620;3.400;2023-05-07T02:06:19;19.00;84.00
46754;DHT22;32500;50.620;3.400;2023-05-07T02:08:45;19.00;84.00
46754;DHT22;32500;50.620;3.400;2023-05-07T02:11:11;19.00;84.00
46754;DHT22;32500;50.620;3.400;2023-05-07T02:13:37;19.00;83.90
46754;DHT22;32500;50.620;3.400;2023-05-07T02:16:03;19.00;84.00
46754;DHT22;32500;50.620;3.400;2023-05-07T02:18:29;19.00;84.00
46754;DHT22;32500;50.620;3.400;2023-05-07T02:20:55;19.00;84.00
46754;DHT22;32500;50.620;3.400;2023-05-07T02:23:20;18.90;84.00
46754;DHT22;32500;50.620;3.400;2023-05-07T02:25:46;19.00;84.00
46754;DHT22;32500;50.620;3.400;2023-05-07T02:28:12;19.00;83.90
46754;DHT22;32500;50.620;3.400;2023-05-07T02:30:38;18.90;83.90
46754;DHT22;32500;50.620;3.400;2023-05-07T02:33:04;18.90;83.90
46754;DHT22;32500;50.620;3.400;2023-05-07T02:35:30;18.90;83.90
46754;DHT22;32500;50.620;3.400;2023-05-07T02:37:55;18.90;83.90
46754;DHT22;32500;50.620;3.400;2023-05-07T02:40:21;18.90;83.90
46754;DHT22;32500;50.620;3.400;2023-05-07T02:42:47;18.90;83.90
46754;DHT22;32500;50.620;3.400;2023-05-07T02:45:12;18.90;83.90
46754;DHT22;32500;50.620;3.400;2023-05-07T02:47:38;18.90;84.00
46754;DHT22;32500;50.620;3.400;2023-05-07T02:50:04;18.90;83.90
46754;DHT22;32500;50.620;3.400;2023-05-07T02:52:30;18.90;83.90
46754;DHT22;32500;50.620;3.400;2023-05-07T02:54:55;18.90;83.90
46754;DHT22;32500;50.620;3.400;2023-05-07T02:57:21;18.90;84.00
46754;DHT22;32500;50.620;3.400;2023-05-07T02:59:47;18.90;84.60
46754;DHT22;32500;50.620;3.400;2023-05-07T03:02:12;18.90;83.80
46754;DHT22;32500;50.620;3.400;2023-05-07T03:04:39;18.90;83.90
46754;DHT22;32500;50.620;3.400;2023-05-07T03:07:05;18.90;83.90
46754;DHT22;32500;50.620;3.400;2023-05-07T03:09:30;18.90;83.80
46754;DHT22;32500;50.620;3.400;2023-05-07T03:11:56;18.90;83.80
46754;DHT22;32500;50.620;3.400;2023-05-07T03:14:22;18.80;83.60
46754;DHT22;32500;50.620;3.400;2023-05-07T03:16:49;18.90;83.80
46754;DHT22;32500;50.620;3.400;2023-05-07T03:19:15;18.90;83.80
46754;DHT22;32500;50.620;3.400;2023-05-07T03:21:41;18.90;83.80
46754;DHT22;32500;50.620;3.400;2023-05-07T03:24:06;18.90;83.70
46754;DHT22;32500;50.620;3.400;2023-05-07T03:26:32;18.90;83.90
46754;DHT22;32500;50.620;3.400;2023-05-07T03:28:58;18.80;83.70
46754;DHT22;32500;50.620;3.400;2023-05-07T03:31:23;18.80;83.70
46754;DHT22;32500;50.620;3.400;2023-05-07T03:33:53;18.90;83.90
46754;DHT22;32500;50.620;3.400;2023-05-07T03:36:19;18.80;83.90
46754;DHT22;32500;50.620;3.400;2023-05-07T03:38:45;18.80;83.80
46754;DHT22;32500;50.620;3.400;2023-05-07T03:41:12;18.80;83.60
46754;DHT22;32500;50.620;3.400;2023-05-07T03:43:37;18.80;83.80
46754;DHT22;32500;50.620;3.400;2023-05-07T03:46:03;18.80;83.80
46754;DHT22;32500;50.620;3.400;2023-05-07T03:48:30;18.80;83.80
46754;DHT22;32500;50.620;3.400;2023-05-07T03:50:57;18.80;83.80
46754;DHT22;32500;50.620;3.400;2023-05-07T03:53:23;18.80;83.70
46754;DHT22;32500;50.620;3.400;2023-05-07T03:55:48;18.80;83.70
46754;DHT22;32500;50.620;3.400;2023-05-07T03:58:15;18.80;83.70
46754;DHT22;32500;50.620;3.400;2023-05-07T04:00:41;18.80;83.80
46754;DHT22;32500;50.620;3.400;2023-05-07T04:03:07;18.80;83.80
46754;DHT22;32500;50.620;3.400;2023-05-07T04:05:32;18.80;83.70
46754;DHT22;32500;50.620;3.400;2023-05-07T04:07:58;18.80;83.70
46754;DHT22;32500;50.620;3.400;2023-05-07T04:10:24;18.80;83.80
46754;DHT22;32500;50.620;3.400;2023-05-07T04:12:50;18.80;83.70
46754;DHT22;32500;50.620;3.400;2023-05-07T04:15:16;18.80;83.70
46754;DHT22;32500;50.620;3.400;2023-05-07T04:17:42;18.80;83.70
46754;DHT22;32500;50.620;3.400;2023-05-07T04:20:14;18.80;83.70
46754;DHT22;32500;50.620;3.400;2023-05-07T04:22:40;18.80;83.70
46754;DHT22;32500;50.620;3.400;2023-05-07T04:25:06;18.80;83.70
46754;DHT22;32500;50.620;3.400;2023-05-07T04:27:33;18.80;83.70
46754;DHT22;32500;50.620;3.400;2023-05-07T04:29:59;18.70;83.60
46754;DHT22;32500;50.620;3.400;2023-05-07T04:32:26;18.80;83.60
46754;DHT22;32500;50.620;3.400;2023-05-07T04:34:52;18.80;83.70
46754;DHT22;32500;50.620;3.400;2023-05-07T04:37:18;18.70;83.60
46754;DHT22;32500;50.620;3.400;2023-05-07T04:39:44;18.70;83.60
46754;DHT22;32500;50.620;3.400;2023-05-07T04:42:13;18.80;83.70
46754;DHT22;32500;50.620;3.400;2023-05-07T04:44:39;18.80;83.60
46754;DHT22;32500;50.620;3.400;2023-05-07T04:47:05;18.70;83.60
46754;DHT22;32500;50.620;3.400;2023-05-07T04:49:31;18.70;83.60
46754;DHT22;32500;50.620;3.400;2023-05-07T04:51:57;18.70;83.60
46754;DHT22;32500;50.620;3.400;2023-05-07T04:54:23;18.70;83.60
46754;DHT22;32500;50.620;3.400;2023-05-07T04:56:48;18.70;83.60
46754;DHT22;32500;50.620;3.400;2023-05-07T04:59:14;18.70;83.40
46754;DHT22;32500;50.620;3.400;2023-05-07T05:01:39;18.70;83.40
46754;DHT22;32500;50.620;3.400;2023-05-07T05:04:05;18.70;83.40
46754;DHT22;32500;50.620;3.400;2023-05-07T05:06:31;18.70;83.50
46754;DHT22;32500;50.620;3.400;2023-05-07T05:08:57;18.70;83.50
46754;DHT22;32500;50.620;3.400;2023-05-07T05:11:23;18.70;83.40
46754;DHT22;32500;50.620;3.400;2023-05-07T05:13:49;18.70;83.40
46754;DHT22;32500;50.620;3.400;2023-05-07T05:16:15;18.70;83.50
46754;DHT22;32500;50.620;3.400;2023-05-07T05:18:41;18.70;83.60
46754;DHT22;32500;50.620;3.400;2023-05-07T05:21:06;18.70;83.50
46754;DHT22;32500;50.620;3.400;2023-05-07T05:23:32;18.70;83.50
46754;DHT22;32500;50.620;3.400;2023-05-07T05:25:58;18.70;83.60
46754;DHT22;32500;50.620;3.400;2023-05-07T05:28:24;18.70;83.50
46754;DHT22;32500;50.620;3.400;2023-05-07T05:30:50;18.70;83.60
46754;DHT22;32500;50.620;3.400;2023-05-07T05:33:15;18.70;83.60
46754;DHT22;32500;50.620;3.400;2023-05-07T05:35:41;18.70;83.50
46754;DHT22;32500;50.620;3.400;2023-05-07T05:38:07;18.70;83.40
46754;DHT22;32500;50.620;3.400;2023-05-07T05:40:33;18.70;83.40
46754;DHT22;32500;50.620;3.400;2023-05-07T05:42:59;18.70;83.30
46754;DHT22;32500;50.620;3.400;2023-05-07T05:45:25;18.70;83.20
46754;DHT22;32500;50.620;3.400;2023-05-07T05:47:51;18.70;83.00
46754;DHT22;32500;50.620;3.400;2023-05-07T05:50:17;18.70;83.00
46754;DHT22;32500;50.620;3.400;2023-05-07T05:52:42;18.70;83.10
46754;DHT22;32500;50.620;3.400;2023-05-07T05:55:08;18.70;83.10
46754;DHT22;32500;50.620;3.400;2023-05-07T05:57:34;18.70;83.00
46754;DHT22;32500;50.620;3.400;2023-05-07T06:00:01;18.70;83.00
46754;DHT22;32500;50.620;3.400;2023-05-07T06:02:27;18.60;83.00
46754;DHT22;32500;50.620;3.400;2023-05-07T06:04:53;18.60;82.90
46754;DHT22;32500;50.620;3.400;2023-05-07T06:07:19;18.60;82.90
46754;DHT22;32500;50.620;3.400;2023-05-07T06:09:45;18.70;82.90
46754;DHT22;32500;50.620;3.400;2023-05-07T06:12:11;18.60;82.70
46754;DHT22;32500;50.620;3.400;2023-05-07T06:14:37;18.60;83.40
46754;DHT22;32500;50.620;3.400;2023-05-07T06:17:02;18.60;82.70
46754;DHT22;32500;50.620;3.400;2023-05-07T06:19:28;18.60;82.70
46754;DHT22;32500;50.620;3.400;2023-05-07T06:21:54;18.60;82.70
46754;DHT22;32500;50.620;3.400;2023-05-07T06:24:22;18.60;82.70
46754;DHT22;32500;50.620;3.400;2023-05-07T06:26:48;18.60;82.60
46754;DHT22;32500;50.620;3.400;2023-05-07T06:29:13;18.60;82.60
46754;DHT22;32500;50.620;3.400;2023-05-07T06:31:39;18.60;82.50
46754;DHT22;32500;50.620;3.400;2023-05-07T06:34:05;18.60;82.50
46754;DHT22;32500;50.620;3.400;2023-05-07T06:36:31;18.60;82.50
46754;DHT22;32500;50.620;3.400;2023-05-07T06:38:56;18.60;82.50
46754;DHT22;32500;50.620;3.400;2023-05-07T06:41:22;18.60;82.50
46754;DHT22;32500;50.620;3.400;2023-05-07T06:43:48;18.60;82.50
46754;DHT22;32500;50.620;3.400;2023-05-07T06:46:16;18.60;82.50
46754;DHT22;32500;50.620;3.400;2023-05-07T06:48:42;18.60;82.50
46754;DHT22;32500;50.620;3.400;2023-05-07T06:51:07;18.60;82.50
46754;DHT22;32500;50.620;3.400;2023-05-07T06:53:34;18.60;82.40
46754;DHT22;32500;50.620;3.400;2023-05-07T06:56:00;18.60;82.40
46754;DHT22;32500;50.620;3.400;2023-05-07T06:58:26;18.60;82.40
46754;DHT22;32500;50.620;3.400;2023-05-07T07:00:52;18.60;82.40
46754;DHT22;32500;50.620;3.400;2023-05-07T07:03:17;18.60;82.40
46754;DHT22;32500;50.620;3.400;2023-05-07T07:05:43;18.60;82.40
46754;DHT22;32500;50.620;3.400;2023-05-07T07:08:09;18.60;82.40
46754;DHT22;32500;50.620;3.400;2023-05-07T07:10:35;18.60;82.40
46754;DHT22;32500;50.620;3.400;2023-05-07T07:13:01;18.60;82.40
46754;DHT22;32500;50.620;3.400;2023-05-07T07:15:27;18.60;82.40
46754;DHT22;32500;50.620;3.400;2023-05-07T07:17:52;18.60;83.10
46754;DHT22;32500;50.620;3.400;2023-05-07T07:20:18;18.60;82.30
46754;DHT22;32500;50.620;3.400;2023-05-07T07:22:44;18.60;82.30
46754;DHT22;32500;50.620;3.400;2023-05-07T07:25:10;18.60;82.30
46754;DHT22;32500;50.620;3.400;2023-05-07T07:27:36;18.60;82.30
46754;DHT22;32500;50.620;3.400;2023-05-07T07:30:02;18.60;82.30
46754;DHT22;32500;50.620;3.400;2023-05-07T07:32:28;18.60;82.20
46754;DHT22;32500;50.620;3.400;2023-05-07T07:34:54;18.60;82.20
46754;DHT22;32500;50.620;3.400;2023-05-07T07:37:20;18.60;82.10
46754;DHT22;32500;50.620;3.400;2023-05-07T07:39:45;18.60;82.10
46754;DHT22;32500;50.620;3.400;2023-05-07T07:42:11;18.60;82.00
46754;DHT22;32500;50.620;3.400;2023-05-07T07:44:36;18.60;81.80
46754;DHT22;32500;50.620;3.400;2023-05-07T07:47:02;18.60;82.00
46754;DHT22;32500;50.620;3.400;2023-05-07T07:49:28;18.60;82.10
46754;DHT22;32500;50.620;3.400;2023-05-07T07:51:53;18.60;82.20
46754;DHT22;32500;50.620;3.400;2023-05-07T07:54:19;18.70;82.50
46754;DHT22;32500;50.620;3.400;2023-05-07T07:56:45;18.70;82.90
46754;DHT22;32500;50.620;3.400;2023-05-07T07:59:10;18.70;83.00
46754;DHT22;32500;50.620;3.400;2023-05-07T08:01:36;18.70;83.40
46754;DHT22;32500;50.620;3.400;2023-05-07T08:04:02;18.70;83.20
46754;DHT22;32500;50.620;3.400;2023-05-07T08:06:31;18.70;83.30
46754;DHT22;32500;50.620;3.400;2023-05-07T08:08:57;18.70;83.50
46754;DHT22;32500;50.620;3.400;2023-05-07T08:11:22;18.80;83.60
46754;DHT22;32500;50.620;3.400;2023-05-07T08:13:48;18.70;83.50
46754;DHT22;32500;50.620;3.400;2023-05-07T08:16:14;18.80;83.70
46754;DHT22;32500;50.620;3.400;2023-05-07T08:18:40;18.80;83.60
46754;DHT22;32500;50.620;3.400;2023-05-07T08:21:05;18.80;83.70
46754;DHT22;32500;50.620;3.400;2023-05-07T08:23:31;18.80;83.90
46754;DHT22;32500;50.620;3.400;2023-05-07T08:25:57;18.80;83.90
46754;DHT22;32500;50.620;3.400;2023-05-07T08:28:23;18.80;84.60
46754;DHT22;32500;50.620;3.400;2023-05-07T08:30:50;18.80;84.00
46754;DHT22;32500;50.620;3.400;2023-05-07T08:33:16;18.80;84.10
46754;DHT22;32500;50.620;3.400;2023-05-07T08:35:41;18.90;84.50
46754;DHT22;32500;50.620;3.400;2023-05-07T08:38:07;18.90;84.60
46754;DHT22;32500;50.620;3.400;2023-05-07T08:40:37;18.80;84.80
46754;DHT22;32500;50.620;3.400;2023-05-07T08:43:08;18.90;84.80
46754;DHT22;32500;50.620;3.400;2023-05-07T08:45:34;18.90;85.00
46754;DHT22;32500;50.620;3.400;2023-05-07T08:48:09;18.80;85.00
46754;DHT22;32500;50.620;3.400;2023-05-07T08:50:36;18.90;85.00
46754;DHT22;32500;50.620;3.400;2023-05-07T08:53:04;18.80;84.80
46754;DHT22;32500;50.620;3.400;2023-05-07T08:55:31;18.80;84.60
46754;DHT22;32500;50.620;3.400;2023-05-07T08:57:57;18.90;85.60
46754;DHT22;32500;50.620;3.400;2023-05-07T09:00:22;18.90;85.90
46754;DHT22;32500;50.620;3.400;2023-05-07T09:02:48;18.90;85.90
46754;DHT22;32500;50.620;3.400;2023-05-07T09:05:14;18.90;86.10
46754;DHT22;32500;50.620;3.400;2023-05-07T09:07:39;18.90;86.00
46754;DHT22;32500;50.620;3.400;2023-05-07T09:10:06;18.80;86.10
46754;DHT22;32500;50.620;3.400;2023-05-07T09:12:32;18.80;86.50
46754;DHT22;32500;50.620;3.400;2023-05-07T09:14:58;18.80;86.30
46754;DHT22;32500;50.620;3.400;2023-05-07T09:17:24;18.80;86.30
46754;DHT22;32500;50.620;3.400;2023-05-07T09:19:50;18.90;86.50
46754;DHT22;32500;50.620;3.400;2023-05-07T09:22:16;18.90;87.40
46754;DHT22;32500;50.620;3.400;2023-05-07T09:24:50;18.90;87.50
46754;DHT22;32500;50.620;3.400;2023-05-07T09:27:17;19.00;87.50
46754;DHT22;32500;50.620;3.400;2023-05-07T09:29:44;19.00;87.80
46754;DHT22;32500;50.620;3.400;2023-05-07T09:32:09;19.00;88.30
46754;DHT22;32500;50.620;3.400;2023-05-07T09:34:36;19.00;88.00
46754;DHT22;32500;50.620;3.400;2023-05-07T09:37:05;19.00;87.80
46754;DHT22;32500;50.620;3.400;2023-05-07T09:39:45;19.00;87.50
46754;DHT22;32500;50.620;3.400;2023-05-07T09:42:11;19.00;87.60
46754;DHT22;32500;50.620;3.400;2023-05-07T09:44:38;19.00;87.60
46754;DHT22;32500;50.620;3.400;2023-05-07T09:47:07;19.00;87.70
46754;DHT22;32500;50.620;3.400;2023-05-07T09:49:37;19.00;87.60
46754;DHT22;32500;50.620;3.400;2023-05-07T09:52:06;19.00;87.60
46754;DHT22;32500;50.620;3.400;2023-05-07T09:54:34;19.00;87.90
46754;DHT22;32500;50.620;3.400;2023-05-07T09:57:05;19.00;87.90
46754;DHT22;32500;50.620;3.400;2023-05-07T09:59:33;19.00;87.50
46754;DHT22;32500;50.620;3.400;2023-05-07T10:02:00;19.00;87.30
46754;DHT22;32500;50.620;3.400;2023-05-07T10:04:27;19.00;86.90
46754;DHT22;32500;50.620;3.400;2023-05-07T10:06:53;19.10;86.40
46754;DHT22;32500;50.620;3.400;2023-05-07T10:09:22;19.00;86.50
46754;DHT22;32500;50.620;3.400;2023-05-07T10:11:49;19.10;86.50
46754;DHT22;32500;50.620;3.400;2023-05-07T10:14:15;19.00;86.20
46754;DHT22;32500;50.620;3.400;2023-05-07T10:16:41;19.10;85.90
46754;DHT22;32500;50.620;3.400;2023-05-07T10:19:08;19.10;86.30
46754;DHT22;32500;50.620;3.400;2023-05-07T10:21:37;19.10;86.00
46754;DHT22;32500;50.620;3.400;2023-05-07T10:24:25;19.10;86.00
46754;DHT22;32500;50.620;3.400;2023-05-07T10:26:53;19.10;85.90
46754;DHT22;32500;50.620;3.400;2023-05-07T10:29:29;19.10;86.00
46754;DHT22;32500;50.620;3.400;2023-05-07T10:34:43;19.10;86.10
46754;DHT22;32500;50.620;3.400;2023-05-07T10:37:11;19.10;85.90
46754;DHT22;32500;50.620;3.400;2023-05-07T10:39:37;19.10;85.70
46754;DHT22;32500;50.620;3.400;2023-05-07T10:42:11;19.10;85.70
46754;DHT22;32500;50.620;3.400;2023-05-07T10:44:37;19.10;85.70
46754;DHT22;32500;50.620;3.400;2023-05-07T10:49:31;19.10;85.40
46754;DHT22;32500;50.620;3.400;2023-05-07T10:52:18;19.10;85.40
46754;DHT22;32500;50.620;3.400;2023-05-07T10:54:46;19.10;85.40
46754;DHT22;32500;50.620;3.400;2023-05-07T10:59:56;19.10;85.30
46754;DHT22;32500;50.620;3.400;2023-05-07T11:02:22;19.10;85.10
46754;DHT22;32500;50.620;3.400;2023-05-07T11:05:19;19.10;85.80
46754;DHT22;32500;50.620;3.400;2023-05-07T11:07:57;19.10;85.00
46754;DHT22;32500;50.620;3.400;2023-05-07T11:10:23;19.10;85.00
46754;DHT22;32500;50.620;3.400;2023-05-07T11:12:50;19.10;84.80
46754;DHT22;32500;50.620;3.400;2023-05-07T11:15:37;19.10;84.80
46754;DHT22;32500;50.620;3.400;2023-05-07T11:18:03;19.10;84.90
46754;DHT22;32500;50.620;3.400;2023-05-07T11:20:55;19.10;85.00
46754;DHT22;32500;50.620;3.400;2023-05-07T11:26:08;19.10;84.80
46754;DHT22;32500;50.620;3.400;2023-05-07T11:28:43;19.10;84.60
46754;DHT22;32500;50.620;3.400;2023-05-07T11:31:09;19.10;84.50
46754;DHT22;32500;50.620;3.400;2023-05-07T11:33:36;19.10;84.40
46754;DHT22;32500;50.620;3.400;2023-05-07T11:36:05;19.10;84.50
46754;DHT22;32500;50.620;3.400;2023-05-07T11:38:37;19.10;84.30
46754;DHT22;32500;50.620;3.400;2023-05-07T11:41:03;19.10;84.30
46754;DHT22;32500;50.620;3.400;2023-05-07T11:43:33;19.10;84.00
46754;DHT22;32500;50.620;3.400;2023-05-07T11:46:11;19.10;84.20
46754;DHT22;32500;50.620;3.400;2023-05-07T11:48:37;19.20;84.40
46754;DHT22;32500;50.620;3.400;2023-05-07T11:51:05;19.20;84.30
46754;DHT22;32500;50.620;3.400;2023-05-07T11:53:41;19.20;84.20
46754;DHT22;32500;50.620;3.400;2023-05-07T11:56:17;19.10;84.20
46754;DHT22;32500;50.620;3.400;2023-05-07T11:58:44;19.10;84.30
46754;DHT22;32500;50.620;3.400;2023-05-07T12:01:11;19.10;84.30
46754;DHT22;32500;50.620;3.400;2023-05-07T12:03:39;19.10;84.30
46754;DHT22;32500;50.620;3.400;2023-05-07T12:06:08;19.10;84.10
46754;DHT22;32500;50.620;3.400;2023-05-07T12:08:37;19.20;84.20
46754;DHT22;32500;50.620;3.400;2023-05-07T12:11:13;19.10;84.80
46754;DHT22;32500;50.620;3.400;2023-05-07T12:13:39;19.20;84.00
46754;DHT22;32500;50.620;3.400;2023-05-07T12:16:06;19.20;84.00
46754;DHT22;32500;50.620;3.400;2023-05-07T12:18:33;19.20;83.90
46754;DHT22;32500;50.620;3.400;2023-05-07T12:21:00;19.20;83.90
46754;DHT22;32500;50.620;3.400;2023-05-07T12:23:25;19.20;83.90
46754;DHT22;32500;50.620;3.400;2023-05-07T12:25:51;19.20;83.90
46754;DHT22;32500;50.620;3.400;2023-05-07T12:28:18;19.20;83.70
46754;DHT22;32500;50.620;3.400;2023-05-07T12:30:46;19.20;83.80
46754;DHT22;32500;50.620;3.400;2023-05-07T12:33:14;19.20;83.70
46754;DHT22;32500;50.620;3.400;2023-05-07T12:35:42;19.20;83.70
46754;DHT22;32500;50.620;3.400;2023-05-07T12:38:13;19.20;83.70
46754;DHT22;32500;50.620;3.400;2023-05-07T12:40:50;19.20;83.70
46754;DHT22;32500;50.620;3.400;2023-05-07T12:43:28;19.20;83.60
46754;DHT22;32500;50.620;3.400;2023-05-07T12:45:56;19.20;83.60
46754;DHT22;32500;50.620;3.400;2023-05-07T12:48:22;19.20;83.60
46754;DHT22;32500;50.620;3.400;2023-05-07T12:50:53;19.20;83.60
46754;DHT22;32500;50.620;3.400;2023-05-07T12:53:21;19.20;83.60
46754;DHT22;32500;50.620;3.400;2023-05-07T12:55:49;19.20;83.60
46754;DHT22;32500;50.620;3.400;2023-05-07T13:00:42;19.20;83.50
46754;DHT22;32500;50.620;3.400;2023-05-07T13:03:09;19.20;83.60
46754;DHT22;32500;50.620;3.400;2023-05-07T13:05:35;19.20;83.50
46754;DHT22;32500;50.620;3.400;2023-05-07T13:08:01;19.20;83.60
46754;DHT22;32500;50.620;3.400;2023-05-07T13:10:27;19.20;83.50
46754;DHT22;32500;50.620;3.400;2023-05-07T13:12:53;19.20;83.40
46754;DHT22;32500;50.620;3.400;2023-05-07T13:15:19;19.20;83.40
46754;DHT22;32500;50.620;3.400;2023-05-07T13:17:45;19.20;83.40
46754;DHT22;32500;50.620;3.400;2023-05-07T13:20:11;19.30;83.40
46754;DHT22;32500;50.620;3.400;2023-05-07T13:22:38;19.30;83.40
46754;DHT22;32500;50.620;3.400;2023-05-07T13:25:05;19.30;83.40
46754;DHT22;32500;50.620;3.400;2023-05-07T13:27:31;19.30;83.40
46754;DHT22;32500;50.620;3.400;2023-05-07T13:29:57;19.30;83.40
46754;DHT22;32500;50.620;3.400;2023-05-07T13:32:22;19.30;83.40
46754;DHT22;32500;50.620;3.400;2023-05-07T13:34:48;19.30;83.40
46754;DHT22;32500;50.620;3.400;2023-05-07T13:37:14;19.30;83.40
46754;DHT22;32500;50.620;3.400;2023-05-07T13:39:39;19.30;83.40
46754;DHT22;32500;50.620;3.400;2023-05-07T13:42:06;19.30;83.40
46754;DHT22;32500;50.620;3.400;2023-05-07T13:44:32;19.30;83.40
46754;DHT22;32500;50.620;3.400;2023-05-07T13:46:57;19.30;83.40
46754;DHT22;32500;50.620;3.400;2023-05-07T13:49:23;19.30;83.40
46754;DHT22;32500;50.620;3.400;2023-05-07T13:51:49;19.30;83.40
46754;DHT22;32500;50.620;3.400;2023-05-07T13:54:15;19.30;83.30
46754;DHT22;32500;50.620;3.400;2023-05-07T13:56:41;19.30;83.40
46754;DHT22;32500;50.620;3.400;2023-05-07T13:59:07;19.30;83.30
46754;DHT22;32500;50.620;3.400;2023-05-07T14:01:33;19.30;83.30
46754;DHT22;32500;50.620;3.400;2023-05-07T14:03:58;19.30;83.30
46754;DHT22;32500;50.620;3.400;2023-05-07T14:06:25;19.30;83.30
46754;DHT22;32500;50.620;3.400;2023-05-07T14:08:51;19.30;83.30
46754;DHT22;32500;50.620;3.400;2023-05-07T14:11:17;19.30;83.30
46754;DHT22;32500;50.620;3.400;2023-05-07T14:13:42;19.30;83.30
46754;DHT22;32500;50.620;3.400;2023-05-07T14:16:08;19.30;83.30
46754;DHT22;32500;50.620;3.400;2023-05-07T14:18:34;19.30;83.30
46754;DHT22;32500;50.620;3.400;2023-05-07T14:21:00;19.30;83.30
46754;DHT22;32500;50.620;3.400;2023-05-07T14:23:26;19.30;83.30
46754;DHT22;32500;50.620;3.400;2023-05-07T14:25:52;19.30;83.20
46754;DHT22;32500;50.620;3.400;2023-05-07T14:28:19;19.30;83.20
46754;DHT22;32500;50.620;3.400;2023-05-07T14:30:44;19.30;83.20
46754;DHT22;32500;50.620;3.400;2023-05-07T14:33:10;19.30;83.20
46754;DHT22;32500;50.620;3.400;2023-05-07T14:35:36;19.30;83.10
46754;DHT22;32500;50.620;3.400;2023-05-07T14:38:02;19.30;83.10
46754;DHT22;32500;50.620;3.400;2023-05-07T14:40:27;19.30;83.00
46754;DHT22;32500;50.620;3.400;2023-05-07T14:42:53;19.30;83.00
46754;DHT22;32500;50.620;3.400;2023-05-07T14:45:20;19.30;83.00
46754;DHT22;32500;50.620;3.400;2023-05-07T14:47:46;19.30;83.00
46754;DHT22;32500;50.620;3.400;2023-05-07T14:50:11;19.30;83.00
46754;DHT22;32500;50.620;3.400;2023-05-07T14:52:37;19.30;83.00
46754;DHT22;32500;50.620;3.400;2023-05-07T14:55:03;19.30;82.90
46754;DHT22;32500;50.620;3.400;2023-05-07T14:57:29;19.30;82.90
46754;DHT22;32500;50.620;3.400;2023-05-07T14:59:55;19.30;82.90
46754;DHT22;32500;50.620;3.400;2023-05-07T15:02:21;19.30;83.00
46754;DHT22;32500;50.620;3.400;2023-05-07T15:04:46;19.30;82.90
46754;DHT22;32500;50.620;3.400;2023-05-07T15:07:13;19.30;82.90
46754;DHT22;32500;50.620;3.400;2023-05-07T15:09:42;19.30;83.00
46754;DHT22;32500;50.620;3.400;2023-05-07T15:12:08;19.30;82.90
46754;DHT22;32500;50.620;3.400;2023-05-07T15:14:34;19.30;82.90
46754;DHT22;32500;50.620;3.400;2023-05-07T15:17:00;19.30;82.80
46754;DHT22;32500;50.620;3.400;2023-05-07T15:19:26;19.30;82.50
46754;DHT22;32500;50.620;3.400;2023-05-07T15:21:58;19.30;82.60
46754;DHT22;32500;50.620;3.400;2023-05-07T15:24:24;19.30;82.50
46754;DHT22;32500;50.620;3.400;2023-05-07T15:26:52;19.30;82.60
46754;DHT22;32500;50.620;3.400;2023-05-07T15:29:17;19.30;82.60
46754;DHT22;32500;50.620;3.400;2023-05-07T15:31:43;19.30;82.70
46754;DHT22;32500;50.620;3.400;2023-05-07T15:34:09;19.30;82.70
46754;DHT22;32500;50.620;3.400;2023-05-07T15:36:35;19.30;82.70
46754;DHT22;32500;50.620;3.400;2023-05-07T15:39:01;19.30;82.70
46754;DHT22;32500;50.620;3.400;2023-05-07T15:41:28;19.30;82.80